Time;durP1;ratioP1;P1;durP2;ratioP2;P2;SDS_P1;SDS_P2;PMS_P1;PMS_P2;Temp;Humidity;BMP_temperature;BMP_pressure;BME280_temperature;BME280_humidity;BME280_pressure;Samples;Min_cycle;Max_cycle;Signal;HPM_P1;HPM_P2
2021/03/22 00:01:12;;;;;;;17.83;3.78;;;;;;;3.97;100.00;102005.88;4967772;28;20346;-54
2021/03/22 00:03:41;;;;;;;26.45;6.35;;;;;;;3.89;100.00;102000.19;4962311;28;20438;-54
2021/03/22 00:06:08;;;;;;;18.92;5.65;;;;;;;3.73;100.00;102006.38;4967090;28;20341;-56
2021/03/22 00:08:35;;;;;;;15.70;5.50;;;;;;;3.65;100.00;102002.47;4963731;28;20435;-56
2021/03/22 00:11:02;;;;;;;13.90;4.20;;;;;;;3.51;100.00;102004.13;4965989;28;20035;-54
2021/03/22 00:13:29;;;;;;;17.23;5.43;;;;;;;3.39;100.00;101997.75;4962988;28;20341;-53
2021/03/22 00:15:58;;;;;;;16.67;5.00;;;;;;;3.25;100.00;102001.16;4964221;28;20061;-56
2021/03/22 00:18:29;;;;;;;14.02;4.43;;;;;;;3.41;100.00;102005.59;4966446;28;20371;-56
2021/03/22 00:20:57;;;;;;;20.58;5.13;;;;;;;3.12;100.00;101997.53;4967560;28;20043;-54
2021/03/22 00:23:24;;;;;;;21.27;4.95;;;;;;;3.25;100.00;101995.06;4965402;28;20047;-50
2021/03/22 00:25:51;;;;;;;18.02;5.93;;;;;;;3.06;100.00;101988.16;4964591;28;20050;-54
2021/03/22 00:28:20;;;;;;;15.27;4.47;;;;;;;3.02;100.00;101985.75;4963379;28;20046;-55
2021/03/22 00:30:47;;;;;;;16.25;5.22;;;;;;;2.94;100.00;101988.84;4965670;28;20042;-53
2021/03/22 00:33:15;;;;;;;17.75;5.60;;;;;;;2.81;100.00;101983.38;4966683;28;20054;-57
2021/03/22 00:35:43;;;;;;;35.17;5.32;;;;;;;2.65;100.00;101996.56;4962419;28;20332;-56
2021/03/22 00:38:12;;;;;;;22.08;5.72;;;;;;;2.50;100.00;101989.47;4965966;28;20049;-55
2021/03/22 00:40:40;;;;;;;15.50;4.60;;;;;;;2.43;100.00;101972.28;4967957;28;20380;-53
2021/03/22 00:43:08;;;;;;;20.80;4.43;;;;;;;2.26;100.00;101976.66;4964415;28;20047;-55
2021/03/22 00:45:50;;;;;;;16.70;4.72;;;;;;;2.28;100.00;101980.03;4962415;28;20373;-55
2021/03/22 00:48:17;;;;;;;21.88;6.00;;;;;;;2.27;100.00;101970.44;4965688;28;20338;-55
2021/03/22 00:50:44;;;;;;;16.65;4.75;;;;;;;2.18;100.00;101965.66;4966933;28;20050;-53
2021/03/22 00:53:14;;;;;;;18.00;3.90;;;;;;;2.17;100.00;101961.28;4965800;28;20335;-53
2021/03/22 00:55:41;;;;;;;20.60;4.43;;;;;;;2.11;100.00;101962.47;4964178;28;20047;-55
2021/03/22 00:58:08;;;;;;;16.90;6.13;;;;;;;2.13;100.00;101965.06;4964340;28;20043;-54
2021/03/22 01:00:38;;;;;;;21.42;5.57;;;;;;;2.16;100.00;101959.63;4963899;28;20047;-56
2021/03/22 01:03:06;;;;;;;21.15;6.03;;;;;;;2.11;100.00;101956.34;4967877;28;20137;-55
2021/03/22 01:05:34;;;;;;;25.60;5.43;;;;;;;2.01;100.00;101951.59;4964600;28;20097;-54
2021/03/22 01:08:01;;;;;;;24.98;6.72;;;;;;;2.11;100.00;101949.28;4968059;28;20514;-55
2021/03/22 01:10:37;;;;;;;17.75;6.07;;;;;;;2.14;100.00;101950.94;4965156;28;20046;-55
2021/03/22 01:13:06;;;;;;;22.02;5.53;;;;;;;2.06;100.00;101956.59;4964215;28;20508;-55
2021/03/22 01:15:33;;;;;;;25.17;6.13;;;;;;;2.04;100.00;101948.78;4963249;28;20039;-54
2021/03/22 01:18:00;;;;;;;14.57;5.75;;;;;;;2.00;100.00;101954.28;4967449;28;20047;-54
2021/03/22 01:20:31;;;;;;;29.23;6.43;;;;;;;1.92;100.00;101945.94;4969379;28;20039;-55
2021/03/22 01:22:58;;;;;;;20.67;4.97;;;;;;;1.85;100.00;101938.34;4968630;28;20034;-54
2021/03/22 01:25:25;;;;;;;20.92;5.75;;;;;;;1.85;100.00;101937.50;4968966;28;20318;-54
2021/03/22 01:27:56;;;;;;;32.67;7.68;;;;;;;1.79;100.00;101940.44;4968622;28;20125;-53
2021/03/22 01:30:26;;;;;;;26.38;7.95;;;;;;;1.72;100.00;101939.91;4967072;28;20042;-54
2021/03/22 01:32:53;;;;;;;24.15;8.10;;;;;;;1.74;100.00;101937.19;4969653;28;20331;-55
2021/03/22 01:35:20;;;;;;;22.73;6.80;;;;;;;1.67;100.00;101940.16;4969076;28;20591;-53
2021/03/22 01:37:47;;;;;;;33.83;8.07;;;;;;;1.65;100.00;101930.63;4970318;28;20687;-52
2021/03/22 01:40:26;;;;;;;24.35;6.80;;;;;;;1.59;100.00;101930.91;4971677;28;20042;-54
2021/03/22 01:43:01;;;;;;;23.20;7.82;;;;;;;1.55;100.00;101927.59;4966144;28;20047;-54
2021/03/22 01:45:28;;;;;;;;;;;;;;;1.50;100.00;101929.59;4964851;28;20530;-56
2021/03/22 01:47:55;;;;;;;16.83;5.82;;;;;;;1.45;100.00;101927.19;4969189;28;19929;-54
2021/03/22 01:50:25;;;;;;;34.85;7.53;;;;;;;1.60;100.00;101936.09;4970500;28;20085;-55
2021/03/22 01:52:53;;;;;;;34.50;8.43;;;;;;;1.78;100.00;101922.94;4966946;28;20045;-54
2021/03/22 01:55:22;;;;;;;42.05;9.63;;;;;;;1.88;100.00;101927.63;4968476;28;20043;-54
2021/03/22 01:57:48;;;;;;;31.63;8.55;;;;;;;1.94;100.00;101923.81;4969839;28;20043;-54
2021/03/22 02:00:22;;;;;;;36.80;8.88;;;;;;;1.97;100.00;101922.81;4968608;28;20116;-53
2021/03/22 02:02:52;;;;;;;22.17;7.18;;;;;;;2.00;100.00;101926.16;4971177;28;20465;-54
2021/03/22 02:05:27;;;;;;;26.45;6.57;;;;;;;2.08;100.00;101927.53;4964289;28;20077;-55
2021/03/22 02:08:01;;;;;;;28.23;7.18;;;;;;;2.10;100.00;101929.16;4968027;28;20042;-55
2021/03/22 02:10:28;;;;;;;31.85;7.47;;;;;;;2.15;100.00;101936.81;4967382;28;20042;-56
2021/03/22 02:12:55;;;;;;;20.75;6.28;;;;;;;2.19;100.00;101933.09;4966737;28;20050;-56
2021/03/22 02:15:22;;;;;;;19.55;7.38;;;;;;;2.23;100.00;101929.38;4964607;28;20046;-54
2021/03/22 02:18:05;;;;;;;26.40;7.35;;;;;;;2.31;100.00;101921.91;4968658;28;20050;-55
2021/03/22 02:21:11;;;;;;;32.22;8.02;;;;;;;2.31;100.00;101921.91;4967452;28;20047;-56
2021/03/22 02:24:09;;;;;;;20.30;5.72;;;;;;;2.35;100.00;101917.31;4967696;28;20046;-56
2021/03/22 02:27:01;;;;;;;22.23;6.85;;;;;;;2.39;100.00;101917.03;4966767;28;20050;-56
2021/03/22 02:29:44;;;;;;;27.45;8.98;;;;;;;2.30;100.00;101909.66;4965607;28;20058;-56
2021/03/22 02:32:42;;;;;;;24.33;8.57;;;;;;;2.28;100.00;101916.78;4969280;28;20037;-52
2021/03/22 02:35:13;;;;;;;17.73;7.95;;;;;;;2.23;100.00;101913.56;4967394;28;20133;-57
2021/03/22 02:37:46;;;;;;;44.80;10.98;;;;;;;2.17;100.00;101911.22;4969158;28;20342;-53
2021/03/22 02:40:20;;;;;;;29.77;6.70;;;;;;;2.12;100.00;101910.63;4967828;28;20340;-56
2021/03/22 02:42:48;;;;;;;29.10;8.02;;;;;;;2.18;100.00;101907.66;4967888;28;20386;-54
2021/03/22 02:45:24;;;;;;;30.88;7.45;;;;;;;2.26;100.00;101912.53;4965994;28;20046;-55
2021/03/22 02:47:51;;;;;;;;;;;;;;;2.29;100.00;101902.66;4969887;28;20090;-55
2021/03/22 02:50:22;;;;;;;23.70;6.38;;;;;;;2.34;100.00;101910.31;4970328;28;19932;-55
2021/03/22 02:53:12;;;;;;;28.75;7.28;;;;;;;2.37;100.00;101907.53;4968606;28;20035;-56
2021/03/22 02:55:47;;;;;;;27.40;7.47;;;;;;;2.42;100.00;101908.13;4963934;28;20298;-55
2021/03/22 02:58:16;;;;;;;29.25;7.35;;;;;;;2.46;100.00;101908.81;4965879;28;20047;-56
2021/03/22 03:00:47;;;;;;;24.55;7.47;;;;;;;2.46;100.00;101911.47;4966545;28;20075;-55
2021/03/22 03:03:17;;;;;;;23.45;7.20;;;;;;;2.51;100.00;101906.75;4968592;28;20046;-56
2021/03/22 03:05:51;;;;;;;29.33;8.30;;;;;;;2.56;100.00;101907.38;4966806;28;20487;-54
2021/03/22 03:08:20;;;;;;;33.65;8.70;;;;;;;2.66;100.00;101905.09;4968312;28;20055;-56
2021/03/22 03:10:47;;;;;;;26.73;9.00;;;;;;;2.65;100.00;101901.59;4966785;28;20053;-56
2021/03/22 03:13:14;;;;;;;36.05;8.40;;;;;;;2.76;100.00;101906.28;4966098;28;20078;-54
2021/03/22 03:15:41;;;;;;;24.42;8.45;;;;;;;3.02;100.00;101904.81;4966903;28;20044;-56
2021/03/22 03:18:08;;;;;;;28.60;8.88;;;;;;;2.96;100.00;101902.50;4968653;28;20051;-55
2021/03/22 03:20:35;;;;;;;33.05;9.35;;;;;;;2.97;100.00;101900.72;4967867;28;20054;-54
2021/03/22 03:23:03;;;;;;;27.30;8.73;;;;;;;2.99;100.00;101902.34;4965186;28;20363;-55
2021/03/22 03:25:30;;;;;;;27.42;7.63;;;;;;;3.08;100.00;101895.69;4964124;28;20047;-56
2021/03/22 03:27:57;;;;;;;26.92;7.82;;;;;;;3.06;100.00;101901.06;4966134;28;20039;-54
2021/03/22 03:30:27;;;;;;;18.77;8.77;;;;;;;3.04;100.00;101900.28;4964924;28;20043;-54
2021/03/22 03:32:54;;;;;;;32.30;9.95;;;;;;;3.03;100.00;101905.66;4970709;28;20304;-56
2021/03/22 03:35:23;;;;;;;29.90;8.27;;;;;;;3.04;100.00;101902.91;4963569;28;20047;-54
2021/03/22 03:37:50;;;;;;;27.40;8.27;;;;;;;3.04;100.00;101899.44;4965211;28;20299;-55
2021/03/22 03:40:21;;;;;;;33.97;8.40;;;;;;;3.07;100.00;101896.63;4968551;28;20047;-55
2021/03/22 03:42:48;;;;;;;24.48;7.45;;;;;;;3.06;100.00;101902.84;4963952;28;20039;-55
2021/03/22 03:45:16;;;;;;;28.20;8.52;;;;;;;3.10;100.00;101904.38;4965002;28;20043;-56
2021/03/22 03:47:44;;;;;;;28.40;9.40;;;;;;;3.08;100.00;101900.97;4949660;28;20134;-55
2021/03/22 03:50:14;;;;;;;22.75;7.80;;;;;;;3.11;100.00;101906.06;4967236;28;20057;-55
2021/03/22 03:52:41;;;;;;;26.95;9.85;;;;;;;3.08;100.00;101904.44;4966886;28;20125;-55
2021/03/22 03:55:09;;;;;;;22.83;9.60;;;;;;;3.12;100.00;101906.91;4964260;28;20342;-55
2021/03/22 03:57:37;;;;;;;30.05;9.43;;;;;;;3.13;100.00;101913.91;4965179;28;20070;-55
2021/03/22 04:00:07;;;;;;;22.65;7.10;;;;;;;3.14;100.00;101915.59;4966117;28;20045;-54
2021/03/22 04:02:34;;;;;;;31.13;9.07;;;;;;;3.24;100.00;101914.13;4967186;28;20050;-54
2021/03/22 04:05:01;;;;;;;25.75;9.13;;;;;;;3.15;100.00;101906.72;4962873;28;20145;-56
2021/03/22 04:07:28;;;;;;;27.45;9.93;;;;;;;3.13;100.00;101903.34;4965254;28;20376;-54
2021/03/22 04:09:55;;;;;;;34.70;8.48;;;;;;;3.13;100.00;101909.47;4967316;28;20053;-54
2021/03/22 04:12:22;;;;;;;25.10;7.88;;;;;;;3.13;100.00;101908.63;4964687;28;20305;-56
2021/03/22 04:14:50;;;;;;;23.98;7.82;;;;;;;3.12;100.00;101906.91;4964254;28;20049;-54
2021/03/22 04:17:17;;;;;;;23.38;9.43;;;;;;;3.08;100.00;101912.38;4966807;28;20043;-56
2021/03/22 04:19:44;;;;;;;32.83;10.00;;;;;;;3.10;100.00;101909.63;5160621;23;20047;-54
2021/03/22 04:22:12;;;;;;;24.50;9.07;;;;;;;3.10;100.00;101909.63;4967883;28;20357;-56
2021/03/22 04:24:38;;;;;;;28.83;8.20;;;;;;;3.13;100.00;101914.75;4966871;28;20451;-55
2021/03/22 04:27:07;;;;;;;29.52;10.48;;;;;;;3.12;100.00;101918.34;4966291;28;20074;-55
2021/03/22 04:29:34;;;;;;;25.40;8.63;;;;;;;3.15;100.00;101906.72;4971835;28;20055;-54
2021/03/22 04:32:02;;;;;;;19.95;8.23;;;;;;;3.30;100.00;101912.94;4984093;28;20053;-56
2021/03/22 04:34:29;;;;;;;24.63;8.82;;;;;;;3.21;100.00;101916.97;4965111;28;20097;-55
2021/03/22 04:36:56;;;;;;;22.15;8.00;;;;;;;3.16;100.00;101913.72;4968055;28;20341;-56
2021/03/22 04:39:23;;;;;;;25.45;10.40;;;;;;;3.18;100.00;101919.78;4967411;28;20441;-56
2021/03/22 04:41:50;;;;;;;30.52;8.82;;;;;;;3.18;100.00;101911.84;4963989;28;20047;-56
2021/03/22 04:44:17;;;;;;;22.25;8.27;;;;;;;3.18;100.00;101919.78;4964679;28;20055;-55
2021/03/22 04:46:44;;;;;;;26.08;7.78;;;;;;;3.17;100.00;101905.72;4967671;28;20043;-54
2021/03/22 04:49:12;;;;;;;28.10;10.00;;;;;;;3.17;100.00;101904.88;4967728;28;20442;-56
2021/03/22 04:51:39;;;;;;;34.30;9.57;;;;;;;3.16;100.00;101908.44;4965141;28;20038;-55
2021/03/22 04:54:08;;;;;;;21.90;7.85;;;;;;;3.15;100.00;101906.72;4964944;28;20047;-55
2021/03/22 04:56:35;;;;;;;28.65;8.05;;;;;;;3.14;100.00;101905.88;4957646;28;20114;-56
2021/03/22 04:59:03;;;;;;;39.88;15.68;;;;;;;3.26;100.00;101906.97;4963548;28;20374;-55
2021/03/22 05:01:30;;;;;;;27.63;9.63;;;;;;;3.21;100.00;101911.69;4965662;28;20050;-54
2021/03/22 05:03:57;;;;;;;40.05;16.33;;;;;;;3.18;100.00;101907.41;4964290;28;20509;-55
2021/03/22 05:06:25;;;;;;;27.50;7.80;;;;;;;3.22;100.00;101913.38;4966785;28;20047;-54
2021/03/22 05:08:52;;;;;;;25.20;7.57;;;;;;;3.17;100.00;101910.97;4966871;28;20060;-56
2021/03/22 05:11:19;;;;;;;20.58;7.68;;;;;;;3.20;100.00;101918.72;4968403;28;20046;-56
2021/03/22 05:13:46;;;;;;;25.17;8.88;;;;;;;3.15;100.00;101912.00;4966209;28;20122;-55
2021/03/22 05:16:14;;;;;;;21.73;8.20;;;;;;;3.15;100.00;101907.59;4967218;28;20051;-56
2021/03/22 05:18:42;;;;;;;24.45;8.30;;;;;;;3.18;100.00;101907.41;4967610;28;20445;-53
2021/03/22 05:21:09;;;;;;;23.33;8.98;;;;;;;3.20;100.00;101909.97;4966488;28;20034;-56
2021/03/22 05:23:38;;;;;;;28.77;8.05;;;;;;;3.21;100.00;101911.69;4968490;28;20043;-56
2021/03/22 05:26:06;;;;;;;30.60;7.95;;;;;;;3.22;100.00;101913.38;4964299;28;20060;-53
2021/03/22 05:28:35;;;;;;;22.90;7.35;;;;;;;3.22;100.00;101908.94;4968826;28;20043;-55
2021/03/22 05:31:02;;;;;;;25.52;7.63;;;;;;;3.27;100.00;101913.94;4967740;28;21135;-54
2021/03/22 05:33:30;;;;;;;25.73;8.68;;;;;;;3.25;100.00;101924.59;4964069;28;20042;-54
2021/03/22 05:36:00;;;;;;;21.35;7.95;;;;;;;3.26;100.00;101925.44;4969035;28;20334;-55
2021/03/22 05:38:28;;;;;;;26.33;7.80;;;;;;;3.32;100.00;101925.09;4965690;28;20456;-55
2021/03/22 05:40:57;;;;;;;18.70;7.32;;;;;;;3.38;100.00;101926.53;4964840;28;20047;-55
2021/03/22 05:43:50;;;;;;;18.33;7.57;;;;;;;3.39;100.00;101936.19;4965847;28;20070;-54
2021/03/22 05:46:24;;;;;;;19.67;7.13;;;;;;;3.37;100.00;101930.94;4967195;28;20061;-52
2021/03/22 05:48:59;;;;;;;23.27;8.13;;;;;;;3.37;100.00;101933.59;4964275;28;20046;-55
2021/03/22 05:51:57;;;;;;;26.77;8.65;;;;;;;3.35;100.00;101935.50;4965535;28;20051;-55
2021/03/22 05:55:00;;;;;;;25.13;7.22;;;;;;;3.35;100.00;101939.94;4960562;28;20336;-55
2021/03/22 05:57:35;;;;;;;23.27;7.78;;;;;;;3.38;100.00;101940.59;4965843;28;20126;-54
2021/03/22 06:00:04;;;;;;;;;;;;;;;3.39;100.00;101946.75;4968535;28;20377;-55
2021/03/22 06:02:35;;;;;;;22.52;6.90;;;;;;;3.45;100.00;101947.22;4967434;28;19921;-55
2021/03/22 06:05:06;;;;;;;23.33;7.80;;;;;;;3.59;100.00;101948.22;4961946;28;20047;-54
2021/03/22 06:07:40;;;;;;;18.33;6.95;;;;;;;3.42;100.00;101950.03;4967627;28;20062;-56
2021/03/22 06:10:13;;;;;;;24.95;8.50;;;;;;;3.48;100.00;101948.81;4965356;28;20323;-55
2021/03/22 06:12:43;;;;;;;19.75;7.78;;;;;;;3.39;100.00;101952.03;4966247;28;20434;-55
2021/03/22 06:15:21;;;;;;;24.02;9.05;;;;;;;3.45;100.00;101956.94;4966382;28;20045;-54
2021/03/22 06:17:49;;;;;;;18.85;6.97;;;;;;;3.58;100.00;101955.25;4970694;28;20058;-55
2021/03/22 06:20:19;;;;;;;18.27;6.97;;;;;;;3.76;100.00;101953.34;4966402;28;20042;-56
2021/03/22 06:22:47;;;;;;;20.83;6.88;;;;;;;3.95;100.00;101954.88;4967983;28;20299;-54
2021/03/22 06:25:18;;;;;;;20.98;6.40;;;;;;;3.95;100.00;101954.88;4964153;28;20078;-55
2021/03/22 06:27:51;;;;;;;23.38;8.13;;;;;;;3.77;100.00;101952.41;4968856;28;20053;-56
2021/03/22 06:30:22;;;;;;;25.13;8.60;;;;;;;3.62;100.00;101958.59;4966176;28;20353;-54
2021/03/22 06:32:51;;;;;;;27.73;8.90;;;;;;;3.65;100.00;101965.50;4963163;28;20449;-52
2021/03/22 06:35:22;;;;;;;32.13;9.82;;;;;;;3.67;100.00;101967.13;4963952;28;20058;-54
2021/03/22 06:37:50;;;;;;;24.15;9.95;;;;;;;3.65;100.00;101970.78;4962807;28;20438;-55
2021/03/22 06:40:30;;;;;;;22.92;7.03;;;;;;;3.69;100.00;101970.50;4972831;28;20047;-55
2021/03/22 06:43:07;;;;;;;26.45;8.98;;;;;;;3.75;100.00;101974.56;4963343;28;20062;-55
2021/03/22 06:45:36;;;;;;;24.20;7.60;;;;;;;3.78;100.00;101975.25;4967817;28;20051;-54
2021/03/22 06:48:18;;;;;;;20.67;7.13;;;;;;;3.87;100.00;101978.28;4968433;28;20058;-53
2021/03/22 06:50:46;;;;;;;31.92;8.25;;;;;;;3.87;100.00;101973.84;4965011;28;20042;-54
2021/03/22 06:53:31;;;;;;;22.63;7.85;;;;;;;3.95;100.00;101973.38;4964847;28;20039;-53
2021/03/22 06:56:10;;;;;;;17.80;7.55;;;;;;;3.95;100.00;101974.25;4965716;28;20438;-55
2021/03/22 06:58:37;;;;;;;19.80;7.70;;;;;;;4.02;100.00;101966.78;4965407;28;20048;-53
2021/03/22 07:01:28;;;;;;;21.83;7.07;;;;;;;4.04;100.00;101969.34;4968479;28;20051;-54
2021/03/22 07:04:16;;;;;;;20.05;6.40;;;;;;;4.12;100.00;101978.50;4962253;28;20044;-56
2021/03/22 07:06:43;;;;;;;18.25;8.15;;;;;;;4.09;100.00;101977.84;4965941;28;20058;-54
2021/03/22 07:09:31;;;;;;;20.33;7.05;;;;;;;4.17;100.00;101974.72;4962603;28;20042;-54
2021/03/22 07:11:58;;;;;;;19.38;6.95;;;;;;;4.17;100.00;101980.03;4947919;28;20423;-52
2021/03/22 07:14:30;;;;;;;20.52;8.95;;;;;;;4.26;100.00;101987.41;4969029;28;20202;-55
2021/03/22 07:17:05;;;;;;;26.42;7.43;;;;;;;4.24;100.00;101981.34;4961983;28;20054;-53
2021/03/22 07:19:32;;;;;;;;;;;;;;;4.36;100.00;101985.91;4964970;28;20492;-54
2021/03/22 07:22:01;;;;;;;20.05;6.50;;;;;;;4.46;100.00;101986.19;4962987;28;20153;-53
2021/03/22 07:24:37;;;;;;;19.45;8.10;;;;;;;4.42;100.00;101984.66;4962637;28;20069;-55
2021/03/22 07:27:19;;;;;;;19.08;7.40;;;;;;;4.47;100.00;101987.88;4963593;28;20449;-54
2021/03/22 07:30:16;;;;;;;19.98;6.95;;;;;;;4.44;100.00;101983.63;4966685;28;20074;-55
2021/03/22 07:32:48;;;;;;;17.00;6.35;;;;;;;4.39;100.00;101990.16;4960520;28;20055;-54
2021/03/22 07:35:33;;;;;;;19.38;6.97;;;;;;;4.44;100.00;101986.28;4965812;28;20100;-54
2021/03/22 07:38:09;;;;;;;23.38;7.00;;;;;;;4.46;100.00;101994.97;4964977;28;20047;-55
2021/03/22 07:40:44;;;;;;;22.75;7.60;;;;;;;4.63;100.00;101985.97;4966630;28;20042;-53
2021/03/22 07:43:17;;;;;;;31.77;8.40;;;;;;;4.61;100.00;101984.41;4961585;28;20387;-54
2021/03/22 07:46:02;;;;;;;24.08;7.55;;;;;;;4.62;100.00;101986.06;4960560;28;20055;-54
2021/03/22 07:48:55;;;;;;;25.83;7.45;;;;;;;4.51;100.00;101978.81;4966801;28;20057;-54
2021/03/22 07:51:46;;;;;;;17.33;7.75;;;;;;;4.56;100.00;101986.47;4953428;28;20055;-55
2021/03/22 07:54:28;;;;;;;21.30;7.13;;;;;;;4.54;100.00;101988.38;4963545;28;20042;-56
2021/03/22 07:57:03;;;;;;;21.98;6.70;;;;;;;4.58;100.00;101989.84;4966413;28;20050;-55
2021/03/22 07:59:36;;;;;;;25.30;8.02;;;;;;;4.67;100.00;101994.59;4966269;28;20043;-53
2021/03/22 08:02:22;;;;;;;22.63;8.15;;;;;;;4.74;100.00;101984.47;4965763;28;20402;-54
2021/03/22 08:04:52;;;;;;;19.77;8.27;;;;;;;5.07;100.00;101988.56;4968640;28;20043;-52
2021/03/22 08:07:36;;;;;;;22.50;6.97;;;;;;;5.04;100.00;101983.47;4966594;28;20433;-55
2021/03/22 08:10:21;;;;;;;25.20;7.88;;;;;;;5.32;100.00;101996.63;4958519;28;20491;-54
2021/03/22 08:12:51;;;;;;;23.13;7.80;;;;;;;5.24;100.00;101987.47;4959055;28;20064;-53
2021/03/22 08:15:24;;;;;;;28.80;9.52;;;;;;;5.51;100.00;101995.41;4961754;28;20049;-55
2021/03/22 08:18:00;;;;;;;15.57;6.30;;;;;;;5.30;100.00;101995.00;4964498;28;20446;-54
2021/03/22 08:20:30;;;;;;;17.27;6.82;;;;;;;5.17;100.00;101993.19;4966087;28;20043;-54
2021/03/22 08:23:01;;;;;;;23.42;7.60;;;;;;;5.37;100.00;101998.97;4966008;28;20039;-56
2021/03/22 08:25:33;;;;;;;26.92;7.88;;;;;;;5.47;100.00;101994.78;4961100;28;20117;-56
2021/03/22 08:28:08;;;;;;;19.25;6.57;;;;;;;5.47;100.00;102008.03;4965036;28;20043;-55
2021/03/22 08:30:44;;;;;;;20.67;7.68;;;;;;;5.62;100.00;102008.81;4968893;28;20078;-52
2021/03/22 08:33:18;;;;;;;20.58;7.47;;;;;;;5.55;100.00;102007.50;4964665;28;20315;-54
2021/03/22 08:35:53;;;;;;;20.45;7.07;;;;;;;5.27;100.00;102008.47;4960717;28;20047;-54
2021/03/22 08:38:38;;;;;;;27.73;7.80;;;;;;;5.48;100.00;102004.41;4961959;28;20055;-55
2021/03/22 08:41:06;;;;;;;21.98;7.78;;;;;;;5.37;100.00;102016.66;4965609;28;20054;-55
2021/03/22 08:43:41;;;;;;;20.73;7.97;;;;;;;5.60;100.00;102015.16;4964541;28;20046;-55
2021/03/22 08:46:24;;;;;;;24.08;7.68;;;;;;;5.43;100.00;102018.91;4959057;28;20058;-52
2021/03/22 08:48:52;;;;;;;25.65;9.07;;;;;;;5.77;100.00;102016.69;4964059;28;20126;-56
2021/03/22 08:51:25;;;;;;;22.10;8.27;;;;;;;5.69;100.00;102006.59;4964153;28;20042;-56
2021/03/22 08:53:53;;;;;;;24.35;8.00;;;;;;;5.63;100.00;102015.81;4962486;28;20039;-53
2021/03/22 08:56:35;;;;;;;27.15;8.95;;;;;;;5.57;100.00;102012.69;4965480;28;20051;-55
2021/03/22 08:59:07;;;;;;;25.05;8.48;;;;;;;5.86;100.00;102011.63;4962721;28;20760;-51
2021/03/22 09:01:35;;;;;;;23.70;8.50;;;;;;;5.62;100.00;102010.63;4966697;28;20047;-55
2021/03/22 09:04:22;;;;;;;23.65;8.73;;;;;;;5.74;100.00;102011.59;4965479;28;20046;-56
2021/03/22 09:06:58;;;;;;;33.47;9.18;;;;;;;5.67;100.00;102019.97;4963605;28;20054;-53
2021/03/22 09:09:28;;;;;;;21.80;8.73;;;;;;;5.38;100.00;102016.56;4968154;28;20438;-55
2021/03/22 09:11:56;;;;;;;21.42;7.75;;;;;;;5.54;100.00;102029.66;4960483;28;20054;-54
2021/03/22 09:14:32;;;;;;;28.98;8.38;;;;;;;5.72;100.00;102024.09;4964064;28;20050;-55
2021/03/22 09:17:01;;;;;;;22.42;8.68;;;;;;;5.53;100.00;102014.72;4966741;28;20047;-55
2021/03/22 09:19:38;;;;;;;15.95;7.57;;;;;;;5.47;100.00;102017.75;4970813;28;20043;-52
2021/03/22 09:22:45;;;;;;;26.45;7.80;;;;;;;5.46;100.00;102016.91;4966327;28;20540;-55
2021/03/22 09:25:29;;;;;;;19.45;7.22;;;;;;;5.67;100.00;102027.03;4961895;28;20104;-53
2021/03/22 09:28:29;;;;;;;30.00;8.50;;;;;;;5.60;100.00;102026.63;4963325;28;20443;-52
2021/03/22 09:30:57;;;;;;;16.90;7.30;;;;;;;5.55;100.00;102028.72;4968021;28;20058;-56
2021/03/22 09:33:50;;;;;;;23.55;8.98;;;;;;;5.46;100.00;102027.50;4964609;28;20366;-54
2021/03/22 09:36:30;;;;;;;24.65;7.07;;;;;;;5.60;100.00;102020.44;4962286;28;20442;-54
2021/03/22 09:38:57;;;;;;;26.27;6.85;;;;;;;5.79;100.00;102026.22;4968087;28;20058;-55
2021/03/22 09:42:01;;;;;;;24.17;6.35;;;;;;;5.59;100.00;102024.91;4971303;28;20053;-56
2021/03/22 09:44:31;;;;;;;18.77;7.80;;;;;;;5.64;100.00;102028.13;4964824;28;20060;-55
2021/03/22 09:47:05;;;;;;;26.10;7.05;;;;;;;5.69;100.00;102031.28;4970186;28;20049;-53
2021/03/22 09:49:41;;;;;;;27.45;7.63;;;;;;;5.73;100.00;102025.78;4965931;28;20051;-56
2021/03/22 09:52:25;;;;;;;21.48;8.65;;;;;;;5.80;100.00;102027.09;4966959;28;20046;-56
2021/03/22 09:54:52;;;;;;;16.55;6.63;;;;;;;6.00;100.00;102036.41;4965993;28;20039;-55
2021/03/22 09:57:36;;;;;;;24.75;7.72;;;;;;;5.98;100.00;102027.69;4971243;28;20049;-53
2021/03/22 10:00:19;;;;;;;21.58;7.20;;;;;;;6.16;100.00;102034.38;4966915;28;20422;-55
2021/03/22 10:02:49;;;;;;;17.30;7.50;;;;;;;6.08;100.00;102031.44;4963109;28;20042;-55
2021/03/22 10:05:21;;;;;;;16.50;6.20;;;;;;;5.82;100.00;102026.03;4967024;28;20054;-55
2021/03/22 10:08:03;;;;;;;17.20;7.00;;;;;;;5.97;100.00;102033.94;4971790;28;20049;-53
2021/03/22 10:10:35;;;;;;;24.80;7.97;;;;;;;6.00;100.00;102033.75;4966792;28;20053;-54
2021/03/22 10:13:07;;;;;;;20.58;6.60;;;;;;;6.07;100.00;102031.50;4970174;28;20121;-55
2021/03/22 10:15:52;;;;;;;20.40;7.47;;;;;;;6.27;100.00;102035.47;4968015;28;20039;-53
2021/03/22 10:18:32;;;;;;;20.20;7.37;;;;;;;6.17;100.00;102035.25;4969017;28;20054;-53
2021/03/22 10:21:12;;;;;;;16.70;7.57;;;;;;;6.31;100.00;102029.84;4970053;28;20047;-56
2021/03/22 10:23:50;;;;;;;20.00;6.13;;;;;;;6.09;100.00;102040.22;4966951;28;20047;-53
2021/03/22 10:26:21;;;;;;;21.75;7.32;;;;;;;5.96;100.00;102043.66;4966005;28;20039;-52
2021/03/22 10:28:49;;;;;;;29.38;7.47;;;;;;;5.84;100.00;102048.00;4968154;28;20078;-55
2021/03/22 10:31:21;;;;;;;16.83;7.00;;;;;;;5.85;100.00;102047.06;4963701;28;20141;-54
2021/03/22 10:33:52;;;;;;;14.35;6.57;;;;;;;5.76;100.00;102060.91;4965460;28;20034;-56
2021/03/22 10:36:24;;;;;;;18.48;6.28;;;;;;;5.88;100.00;102056.56;4966775;28;20053;-55
2021/03/22 10:38:54;;;;;;;20.95;7.35;;;;;;;5.81;100.00;102055.28;4966647;28;20055;-55
2021/03/22 10:41:27;;;;;;;23.92;7.90;;;;;;;5.89;100.00;102062.75;4966218;28;21090;-52
2021/03/22 10:43:59;;;;;;;15.85;6.90;;;;;;;5.91;100.00;102060.84;4964581;28;20039;-54
2021/03/22 10:46:27;;;;;;;25.67;8.32;;;;;;;5.99;100.00;102054.09;4966221;28;20069;-55
2021/03/22 10:49:06;;;;;;;29.00;7.70;;;;;;;6.19;100.00;102055.44;4965921;28;20097;-54
2021/03/22 10:51:41;;;;;;;19.20;7.97;;;;;;;6.24;100.00;102062.19;4963404;28;20047;-55
2021/03/22 10:54:15;;;;;;;19.42;8.02;;;;;;;6.01;100.00;102072.56;4967925;28;20065;-52
2021/03/22 10:56:54;;;;;;;16.27;6.13;;;;;;;6.24;100.00;102062.19;4966833;28;20445;-55
2021/03/22 10:59:24;;;;;;;21.70;8.68;;;;;;;6.25;100.00;102069.22;4963635;28;20053;-54
2021/03/22 11:01:53;;;;;;;24.48;7.63;;;;;;;6.62;100.00;102072.84;4965908;28;20586;-54
2021/03/22 11:04:21;;;;;;;22.65;7.60;;;;;;;6.74;100.00;102065.81;4958841;28;21266;-54
2021/03/22 11:06:50;;;;;;;20.42;7.13;;;;;;;6.72;100.00;102067.75;4968492;28;20373;-54
2021/03/22 11:09:22;;;;;;;23.60;7.18;;;;;;;6.50;100.00;102066.56;4971050;28;20130;-55
2021/03/22 11:11:50;;;;;;;16.55;5.70;;;;;;;6.66;100.00;102060.19;4968072;28;20050;-54
2021/03/22 11:14:19;;;;;;;14.43;5.75;;;;;;;6.58;100.00;102060.75;4967367;28;20275;-54
2021/03/22 11:16:47;;;;;;;14.85;6.28;;;;;;;6.87;100.00;102063.16;4967438;28;20045;-53
2021/03/22 11:19:28;;;;;;;16.17;6.07;;;;;;;6.44;100.00;102069.66;4966842;28;20138;-54
2021/03/22 11:21:56;;;;;;;16.05;6.10;;;;;;;6.58;100.00;102063.41;4968839;28;20038;-55
2021/03/22 11:24:37;;;;;;;19.48;7.10;;;;;;;6.86;100.00;102064.97;4965982;28;20417;-53
2021/03/22 11:27:08;;;;;;;12.23;5.00;;;;;;;7.07;100.00;102072.34;4968150;28;20407;-55
2021/03/22 11:29:50;;;;;;;13.82;5.25;;;;;;;6.55;100.00;102069.75;4967176;28;20797;-55
2021/03/22 11:32:21;;;;;;;13.43;4.82;;;;;;;6.78;100.00;102075.28;4963480;28;20081;-55
2021/03/22 11:34:49;;;;;;;10.38;5.05;;;;;;;7.08;100.00;102071.41;4964772;28;20342;-52
2021/03/22 11:37:20;;;;;;;14.88;5.75;;;;;;;7.29;100.00;102068.19;4965665;28;20046;-54
2021/03/22 11:39:55;;;;;;;12.45;4.55;;;;;;;7.11;100.00;102068.53;4966827;28;20049;-54
2021/03/22 11:42:28;;;;;;;13.90;4.07;;;;;;;6.70;100.00;102067.00;4963911;28;20054;-55